sensor_id;sensor_type;location;lat;lon;timestamp;pressure;altitude;pressure_sealevel;temperature;humidity
34454;BME280;60061;52.080;5.312;2022-08-19T00:01:22;101302.0;;;18.48;89.59
34454;BME280;60061;52.080;5.312;2022-08-19T00:02:59;101300.0;;;18.45;89.65
34454;BME280;60061;52.080;5.312;2022-08-19T00:04:36;101303.0;;;18.43;89.54
34454;BME280;60061;52.080;5.312;2022-08-19T00:07:49;101299.0;;;18.41;89.65
34454;BME280;60061;52.080;5.312;2022-08-19T00:09:27;101305.0;;;18.36;89.95
34454;BME280;60061;52.080;5.312;2022-08-19T00:11:04;101300.0;;;18.3;89.64
34454;BME280;60061;52.080;5.312;2022-08-19T00:14:18;101305.0;;;18.28;89.8
34454;BME280;60061;52.080;5.312;2022-08-19T00:15:55;101305.0;;;18.27;89.86
34454;BME280;60061;52.080;5.312;2022-08-19T00:17:31;101306.0;;;18.25;89.78
34454;BME280;60061;52.080;5.312;2022-08-19T00:19:08;101303.0;;;18.2;89.96
34454;BME280;60061;52.080;5.312;2022-08-19T00:22:21;101308.0;;;18.16;89.67
34454;BME280;60061;52.080;5.312;2022-08-19T00:23:58;101302.0;;;18.09;89.98
34454;BME280;60061;52.080;5.312;2022-08-19T00:25:36;101305.0;;;18.07;90.0
34454;BME280;60061;52.080;5.312;2022-08-19T00:28:50;101303.0;;;18.04;89.86
34454;BME280;60061;52.080;5.312;2022-08-19T00:30:28;101305.0;;;18.02;89.8
34454;BME280;60061;52.080;5.312;2022-08-19T00:32:05;101302.0;;;18.02;89.83
34454;BME280;60061;52.080;5.312;2022-08-19T00:35:18;101307.0;;;17.98;90.13
34454;BME280;60061;52.080;5.312;2022-08-19T00:36:55;101302.0;;;17.98;90.12
34454;BME280;60061;52.080;5.312;2022-08-19T00:38:32;101305.0;;;18.0;89.95
34454;BME280;60061;52.080;5.312;2022-08-19T00:40:11;101300.0;;;18.02;89.42
34454;BME280;60061;52.080;5.312;2022-08-19T00:43:27;101303.0;;;18.03;89.62
34454;BME280;60061;52.080;5.312;2022-08-19T00:45:09;101300.0;;;18.03;89.44
34454;BME280;60061;52.080;5.312;2022-08-19T00:46:49;101296.0;;;18.03;89.35
34454;BME280;60061;52.080;5.312;2022-08-19T00:48:26;101294.0;;;18.02;89.21
34454;BME280;60061;52.080;5.312;2022-08-19T00:51:42;101299.0;;;18.0;88.92
34454;BME280;60061;52.080;5.312;2022-08-19T00:53:23;101302.0;;;17.96;88.9
34454;BME280;60061;52.080;5.312;2022-08-19T00:55:05;101302.0;;;17.93;88.87
34454;BME280;60061;52.080;5.312;2022-08-19T00:58:25;101299.0;;;17.91;89.06
34454;BME280;60061;52.080;5.312;2022-08-19T01:00:07;101305.0;;;17.91;89.46
34454;BME280;60061;52.080;5.312;2022-08-19T01:01:46;101301.0;;;17.86;89.25
34454;BME280;60061;52.080;5.312;2022-08-19T01:03:23;101299.0;;;17.82;89.18
34454;BME280;60061;52.080;5.312;2022-08-19T01:06:41;101301.0;;;17.79;89.52
34454;BME280;60061;52.080;5.312;2022-08-19T01:08:18;101301.0;;;17.77;89.75
34454;BME280;60061;52.080;5.312;2022-08-19T01:09:55;101300.0;;;17.77;89.57
34454;BME280;60061;52.080;5.312;2022-08-19T01:11:36;101300.0;;;17.75;89.53
34454;BME280;60061;52.080;5.312;2022-08-19T01:14:59;101295.0;;;17.73;89.89
34454;BME280;60061;52.080;5.312;2022-08-19T01:16:36;101294.0;;;17.68;90.64
34454;BME280;60061;52.080;5.312;2022-08-19T01:18:16;101289.0;;;17.68;91.1
34454;BME280;60061;52.080;5.312;2022-08-19T01:19:54;101290.0;;;17.66;90.76
34454;BME280;60061;52.080;5.312;2022-08-19T01:23:20;101291.0;;;17.68;90.24
34454;BME280;60061;52.080;5.312;2022-08-19T01:24:56;101291.0;;;17.62;90.23
34454;BME280;60061;52.080;5.312;2022-08-19T01:26:39;101297.0;;;17.61;90.23
34454;BME280;60061;52.080;5.312;2022-08-19T01:28:18;101292.0;;;17.57;89.89
34454;BME280;60061;52.080;5.312;2022-08-19T01:31:31;101298.0;;;17.53;90.2
34454;BME280;60061;52.080;5.312;2022-08-19T01:33:07;101298.0;;;17.5;90.68
34454;BME280;60061;52.080;5.312;2022-08-19T01:34:46;101300.0;;;17.45;90.73
34454;BME280;60061;52.080;5.312;2022-08-19T01:38:09;101301.0;;;17.47;90.48
34454;BME280;60061;52.080;5.312;2022-08-19T01:39:46;101305.0;;;17.43;91.06
34454;BME280;60061;52.080;5.312;2022-08-19T01:41:24;101303.0;;;17.41;90.7
34454;BME280;60061;52.080;5.312;2022-08-19T01:43:01;101305.0;;;17.39;90.87
34454;BME280;60061;52.080;5.312;2022-08-19T01:46:16;101307.0;;;17.37;90.86
34454;BME280;60061;52.080;5.312;2022-08-19T01:47:52;101303.0;;;17.37;90.65
34454;BME280;60061;52.080;5.312;2022-08-19T01:49:29;101301.0;;;17.31;91.06
34454;BME280;60061;52.080;5.312;2022-08-19T01:52:45;101295.0;;;17.25;91.2
34454;BME280;60061;52.080;5.312;2022-08-19T01:54:24;101300.0;;;17.21;90.99
34454;BME280;60061;52.080;5.312;2022-08-19T01:56:01;101303.0;;;17.16;91.34
34454;BME280;60061;52.080;5.312;2022-08-19T01:57:40;101305.0;;;17.12;91.37
34454;BME280;60061;52.080;5.312;2022-08-19T02:01:00;101309.0;;;17.07;91.33
34454;BME280;60061;52.080;5.312;2022-08-19T02:02:36;101310.0;;;17.02;91.39
34454;BME280;60061;52.080;5.312;2022-08-19T02:04:12;101306.0;;;17.03;91.41
34454;BME280;60061;52.080;5.312;2022-08-19T02:05:55;101305.0;;;17.02;91.27
34454;BME280;60061;52.080;5.312;2022-08-19T02:09:09;101305.0;;;17.0;91.08
34454;BME280;60061;52.080;5.312;2022-08-19T02:10:46;101306.0;;;16.95;91.16
34454;BME280;60061;52.080;5.312;2022-08-19T02:12:22;101305.0;;;16.95;90.88
34454;BME280;60061;52.080;5.312;2022-08-19T02:15:36;101308.0;;;16.91;91.0
34454;BME280;60061;52.080;5.312;2022-08-19T02:17:14;101309.0;;;16.9;91.22
34454;BME280;60061;52.080;5.312;2022-08-19T02:18:50;101307.0;;;16.88;90.98
34454;BME280;60061;52.080;5.312;2022-08-19T02:20:26;101308.0;;;16.86;91.05
34454;BME280;60061;52.080;5.312;2022-08-19T02:23:40;101301.0;;;16.82;91.26
34454;BME280;60061;52.080;5.312;2022-08-19T02:25:16;101298.0;;;16.8;91.1
34454;BME280;60061;52.080;5.312;2022-08-19T02:26:53;101301.0;;;16.79;91.25
34454;BME280;60061;52.080;5.312;2022-08-19T02:30:08;101299.0;;;16.78;91.04
34454;BME280;60061;52.080;5.312;2022-08-19T02:31:47;101311.0;;;16.77;91.06
34454;BME280;60061;52.080;5.312;2022-08-19T02:33:23;101310.0;;;16.73;91.04
34454;BME280;60061;52.080;5.312;2022-08-19T02:36:36;101310.0;;;16.71;91.53
34454;BME280;60061;52.080;5.312;2022-08-19T02:38:29;101314.0;;;16.65;91.66
34454;BME280;60061;52.080;5.312;2022-08-19T02:40:07;101318.0;;;16.61;91.87
34454;BME280;60061;52.080;5.312;2022-08-19T02:41:44;101319.0;;;16.64;91.82
34454;BME280;60061;52.080;5.312;2022-08-19T02:44:58;101323.0;;;16.66;91.2
34454;BME280;60061;52.080;5.312;2022-08-19T02:46:34;101331.0;;;16.65;90.75
34454;BME280;60061;52.080;5.312;2022-08-19T02:48:11;101328.0;;;16.65;91.07
34454;BME280;60061;52.080;5.312;2022-08-19T02:49:49;101321.0;;;16.61;91.7
34454;BME280;60061;52.080;5.312;2022-08-19T02:53:08;101320.0;;;16.61;91.67
34454;BME280;60061;52.080;5.312;2022-08-19T02:54:45;101315.0;;;16.61;91.21
34454;BME280;60061;52.080;5.312;2022-08-19T02:56:23;101318.0;;;16.7;92.26
34454;BME280;60061;52.080;5.312;2022-08-19T02:59:36;101317.0;;;16.64;91.55
34454;BME280;60061;52.080;5.312;2022-08-19T03:01:21;101318.0;;;16.62;92.88
34454;BME280;60061;52.080;5.312;2022-08-19T03:02:57;101313.0;;;16.73;92.89
34454;BME280;60061;52.080;5.312;2022-08-19T03:04:33;101316.0;;;16.82;92.33
34454;BME280;60061;52.080;5.312;2022-08-19T03:07:49;101308.0;;;16.95;92.13
34454;BME280;60061;52.080;5.312;2022-08-19T03:09:27;101307.0;;;16.73;91.91
34454;BME280;60061;52.080;5.312;2022-08-19T03:11:03;101298.0;;;16.8;93.13
34454;BME280;60061;52.080;5.312;2022-08-19T03:14:18;101303.0;;;16.75;93.17
34454;BME280;60061;52.080;5.312;2022-08-19T03:15:54;101303.0;;;16.7;93.03
34454;BME280;60061;52.080;5.312;2022-08-19T03:17:30;101305.0;;;16.66;91.75
34454;BME280;60061;52.080;5.312;2022-08-19T03:19:07;101300.0;;;16.65;91.54
34454;BME280;60061;52.080;5.312;2022-08-19T03:22:21;101297.0;;;16.63;91.66
34454;BME280;60061;52.080;5.312;2022-08-19T03:24:00;101290.0;;;16.65;92.99
34454;BME280;60061;52.080;5.312;2022-08-19T03:25:47;101297.0;;;16.68;92.8
34454;BME280;60061;52.080;5.312;2022-08-19T03:27:24;101298.0;;;16.61;91.61
34454;BME280;60061;52.080;5.312;2022-08-19T03:30:43;101300.0;;;16.59;91.41
34454;BME280;60061;52.080;5.312;2022-08-19T03:32:19;101294.0;;;16.57;91.41
34454;BME280;60061;52.080;5.312;2022-08-19T03:33:55;101294.0;;;16.53;91.46
34454;BME280;60061;52.080;5.312;2022-08-19T03:37:09;101298.0;;;16.53;91.78
34454;BME280;60061;52.080;5.312;2022-08-19T03:38:51;101300.0;;;16.5;91.2
34454;BME280;60061;52.080;5.312;2022-08-19T03:40:31;101301.0;;;16.45;91.18
34454;BME280;60061;52.080;5.312;2022-08-19T03:42:07;101305.0;;;16.43;91.44
34454;BME280;60061;52.080;5.312;2022-08-19T03:45:23;101306.0;;;16.41;91.49
34454;BME280;60061;52.080;5.312;2022-08-19T03:47:00;101305.0;;;16.43;91.18
34454;BME280;60061;52.080;5.312;2022-08-19T03:48:38;101306.0;;;16.4;90.77
34454;BME280;60061;52.080;5.312;2022-08-19T03:51:53;101302.0;;;16.38;91.24
34454;BME280;60061;52.080;5.312;2022-08-19T03:53:31;101297.0;;;16.38;91.0
34454;BME280;60061;52.080;5.312;2022-08-19T03:55:08;101293.0;;;16.5;92.16
34454;BME280;60061;52.080;5.312;2022-08-19T03:56:47;101289.0;;;16.4;91.85
34454;BME280;60061;52.080;5.312;2022-08-19T04:00:05;101295.0;;;16.37;90.96
34454;BME280;60061;52.080;5.312;2022-08-19T04:01:42;101296.0;;;16.31;90.87
34454;BME280;60061;52.080;5.312;2022-08-19T04:03:19;101300.0;;;16.3;91.34
34454;BME280;60061;52.080;5.312;2022-08-19T04:06:34;101302.0;;;16.28;91.67
34454;BME280;60061;52.080;5.312;2022-08-19T04:08:11;101305.0;;;16.25;91.52
34454;BME280;60061;52.080;5.312;2022-08-19T04:09:48;101299.0;;;16.23;92.04
34454;BME280;60061;52.080;5.312;2022-08-19T04:11:26;101296.0;;;16.23;91.22
34454;BME280;60061;52.080;5.312;2022-08-19T04:14:41;101294.0;;;16.18;91.97
34454;BME280;60061;52.080;5.312;2022-08-19T04:16:18;101292.0;;;16.09;92.04
34454;BME280;60061;52.080;5.312;2022-08-19T04:17:56;101288.0;;;16.05;92.17
34454;BME280;60061;52.080;5.312;2022-08-19T04:21:16;101288.0;;;16.06;92.02
34454;BME280;60061;52.080;5.312;2022-08-19T04:22:53;101288.0;;;16.03;92.17
34454;BME280;60061;52.080;5.312;2022-08-19T04:24:29;101295.0;;;16.0;92.12
34454;BME280;60061;52.080;5.312;2022-08-19T04:26:06;101292.0;;;15.96;92.48
34454;BME280;60061;52.080;5.312;2022-08-19T04:29:25;101297.0;;;15.95;92.09
34454;BME280;60061;52.080;5.312;2022-08-19T04:31:01;101299.0;;;15.93;92.15
34454;BME280;60061;52.080;5.312;2022-08-19T04:32:39;101295.0;;;15.94;92.49
34454;BME280;60061;52.080;5.312;2022-08-19T04:35:58;101298.0;;;15.96;92.96
34454;BME280;60061;52.080;5.312;2022-08-19T04:37:34;101293.0;;;15.98;93.38
34454;BME280;60061;52.080;5.312;2022-08-19T04:39:13;101284.0;;;15.97;93.5
34454;BME280;60061;52.080;5.312;2022-08-19T04:43:48;101280.0;;;15.99;93.74
34454;BME280;60061;52.080;5.312;2022-08-19T04:45:24;101277.0;;;16.02;93.27
34454;BME280;60061;52.080;5.312;2022-08-19T04:47:00;101275.0;;;16.02;92.02
34454;BME280;60061;52.080;5.312;2022-08-19T04:50:15;101278.0;;;16.02;91.53
34454;BME280;60061;52.080;5.312;2022-08-19T04:51:55;101276.0;;;16.03;91.48
34454;BME280;60061;52.080;5.312;2022-08-19T04:53:32;101274.0;;;15.99;91.82
34454;BME280;60061;52.080;5.312;2022-08-19T04:56:50;101284.0;;;15.98;92.03
34454;BME280;60061;52.080;5.312;2022-08-19T04:58:27;101278.0;;;15.95;92.29
34454;BME280;60061;52.080;5.312;2022-08-19T05:00:06;101286.0;;;15.94;91.91
34454;BME280;60061;52.080;5.312;2022-08-19T05:01:43;101299.0;;;15.93;91.66
34454;BME280;60061;52.080;5.312;2022-08-19T05:04:57;101305.0;;;15.92;92.16
34454;BME280;60061;52.080;5.312;2022-08-19T05:06:35;101306.0;;;15.9;92.49
34454;BME280;60061;52.080;5.312;2022-08-19T05:08:13;101309.0;;;15.94;91.49
34454;BME280;60061;52.080;5.312;2022-08-19T05:11:29;101311.0;;;15.95;92.42
34454;BME280;60061;52.080;5.312;2022-08-19T05:13:09;101317.0;;;15.97;92.26
34454;BME280;60061;52.080;5.312;2022-08-19T05:14:49;101320.0;;;15.97;93.06
34454;BME280;60061;52.080;5.312;2022-08-19T05:16:26;101317.0;;;15.99;92.67
34454;BME280;60061;52.080;5.312;2022-08-19T05:24:29;101307.0;;;16.11;92.04
34454;BME280;60061;52.080;5.312;2022-08-19T05:26:06;101311.0;;;16.14;91.92
34454;BME280;60061;52.080;5.312;2022-08-19T05:27:42;101311.0;;;16.14;92.79
34454;BME280;60061;52.080;5.312;2022-08-19T05:29:20;101316.0;;;16.15;92.89
34454;BME280;60061;52.080;5.312;2022-08-19T05:30:57;101313.0;;;16.16;92.93
34454;BME280;60061;52.080;5.312;2022-08-19T05:34:11;101316.0;;;16.16;93.52
34454;BME280;60061;52.080;5.312;2022-08-19T05:35:49;101315.0;;;16.18;93.18
34454;BME280;60061;52.080;5.312;2022-08-19T05:37:27;101317.0;;;16.22;93.86
34454;BME280;60061;52.080;5.312;2022-08-19T05:40:42;101316.0;;;16.25;93.43
34454;BME280;60061;52.080;5.312;2022-08-19T05:42:20;101319.0;;;16.3;93.01
34454;BME280;60061;52.080;5.312;2022-08-19T05:43:58;101315.0;;;16.36;93.26
34454;BME280;60061;52.080;5.312;2022-08-19T05:45:38;101315.0;;;16.41;91.91
34454;BME280;60061;52.080;5.312;2022-08-19T05:48:53;101318.0;;;16.5;94.26
34454;BME280;60061;52.080;5.312;2022-08-19T05:50:30;101312.0;;;16.59;93.58
34454;BME280;60061;52.080;5.312;2022-08-19T05:52:09;101317.0;;;16.68;92.38
34454;BME280;60061;52.080;5.312;2022-08-19T05:55:23;101308.0;;;16.78;93.34
34454;BME280;60061;52.080;5.312;2022-08-19T05:57:01;101312.0;;;16.86;94.71
34454;BME280;60061;52.080;5.312;2022-08-19T05:58:38;101312.0;;;16.96;93.59
34454;BME280;60061;52.080;5.312;2022-08-19T06:00:15;101315.0;;;17.06;95.59
34454;BME280;60061;52.080;5.312;2022-08-19T06:03:32;101314.0;;;17.13;95.4
34454;BME280;60061;52.080;5.312;2022-08-19T06:05:10;101307.0;;;17.18;95.39
34454;BME280;60061;52.080;5.312;2022-08-19T06:06:48;101312.0;;;17.25;96.55
34454;BME280;60061;52.080;5.312;2022-08-19T06:10:03;101311.0;;;17.36;97.16
34454;BME280;60061;52.080;5.312;2022-08-19T06:11:42;101312.0;;;17.52;98.84
34454;BME280;60061;52.080;5.312;2022-08-19T06:13:21;101306.0;;;17.66;100.0
34454;BME280;60061;52.080;5.312;2022-08-19T06:14:57;101305.0;;;17.86;100.0
34454;BME280;60061;52.080;5.312;2022-08-19T06:18:14;101305.0;;;17.98;100.0
34454;BME280;60061;52.080;5.312;2022-08-19T06:19:52;101307.0;;;18.09;100.0
34454;BME280;60061;52.080;5.312;2022-08-19T06:21:29;101310.0;;;18.22;100.0
34454;BME280;60061;52.080;5.312;2022-08-19T06:23:07;101310.0;;;18.29;100.0
34454;BME280;60061;52.080;5.312;2022-08-19T06:26:21;101314.0;;;18.36;99.56
34454;BME280;60061;52.080;5.312;2022-08-19T06:27:57;101314.0;;;18.52;100.0
34454;BME280;60061;52.080;5.312;2022-08-19T06:29:35;101314.0;;;18.62;100.0
34454;BME280;60061;52.080;5.312;2022-08-19T06:32:52;101313.0;;;18.66;100.0
34454;BME280;60061;52.080;5.312;2022-08-19T06:34:32;101312.0;;;18.72;100.0
34454;BME280;60061;52.080;5.312;2022-08-19T06:36:16;101320.0;;;18.73;99.73
34454;BME280;60061;52.080;5.312;2022-08-19T06:37:54;101314.0;;;18.86;100.0
34454;BME280;60061;52.080;5.312;2022-08-19T06:41:14;101317.0;;;18.96;100.0
34454;BME280;60061;52.080;5.312;2022-08-19T06:42:50;101318.0;;;18.96;100.0
34454;BME280;60061;52.080;5.312;2022-08-19T06:44:29;101317.0;;;19.09;100.0
34454;BME280;60061;52.080;5.312;2022-08-19T06:46:12;101323.0;;;19.11;100.0
34454;BME280;60061;52.080;5.312;2022-08-19T06:49:31;101330.0;;;19.11;100.0
34454;BME280;60061;52.080;5.312;2022-08-19T06:51:08;101325.0;;;19.2;100.0
34454;BME280;60061;52.080;5.312;2022-08-19T06:52:44;101330.0;;;19.3;100.0
34454;BME280;60061;52.080;5.312;2022-08-19T06:56:00;101323.0;;;19.31;100.0
34454;BME280;60061;52.080;5.312;2022-08-19T06:57:37;101323.0;;;19.38;100.0
34454;BME280;60061;52.080;5.312;2022-08-19T06:59:14;101324.0;;;19.36;100.0
34454;BME280;60061;52.080;5.312;2022-08-19T07:01:02;101323.0;;;19.43;100.0
34454;BME280;60061;52.080;5.312;2022-08-19T07:04:19;101325.0;;;19.5;100.0
34454;BME280;60061;52.080;5.312;2022-08-19T07:05:56;101322.0;;;19.53;100.0
34454;BME280;60061;52.080;5.312;2022-08-19T07:07:34;101318.0;;;19.64;100.0
34454;BME280;60061;52.080;5.312;2022-08-19T07:09:14;101322.0;;;19.72;100.0
34454;BME280;60061;52.080;5.312;2022-08-19T07:12:31;101327.0;;;19.75;100.0
34454;BME280;60061;52.080;5.312;2022-08-19T07:14:08;101328.0;;;19.79;100.0
34454;BME280;60061;52.080;5.312;2022-08-19T07:15:46;101334.0;;;19.84;100.0
34454;BME280;60061;52.080;5.312;2022-08-19T07:19:00;101335.0;;;19.86;100.0
34454;BME280;60061;52.080;5.312;2022-08-19T07:20:37;101339.0;;;19.91;100.0
34454;BME280;60061;52.080;5.312;2022-08-19T07:22:14;101336.0;;;20.0;100.0
34454;BME280;60061;52.080;5.312;2022-08-19T07:23:51;101330.0;;;19.97;100.0
34454;BME280;60061;52.080;5.312;2022-08-19T07:27:05;101334.0;;;19.97;100.0
34454;BME280;60061;52.080;5.312;2022-08-19T07:28:44;101328.0;;;20.03;100.0
34454;BME280;60061;52.080;5.312;2022-08-19T07:30:23;101335.0;;;20.05;100.0
34454;BME280;60061;52.080;5.312;2022-08-19T07:33:38;101336.0;;;20.07;100.0
34454;BME280;60061;52.080;5.312;2022-08-19T07:35:14;101334.0;;;20.13;100.0
34454;BME280;60061;52.080;5.312;2022-08-19T07:36:51;101336.0;;;20.2;100.0
34454;BME280;60061;52.080;5.312;2022-08-19T07:38:28;101335.0;;;20.27;99.81
34454;BME280;60061;52.080;5.312;2022-08-19T07:41:44;101336.0;;;20.2;99.08
34454;BME280;60061;52.080;5.312;2022-08-19T07:43:25;101339.0;;;20.25;99.2
34454;BME280;60061;52.080;5.312;2022-08-19T07:45:05;101338.0;;;20.22;98.52
34454;BME280;60061;52.080;5.312;2022-08-19T07:48:28;101342.0;;;20.29;99.42
34454;BME280;60061;52.080;5.312;2022-08-19T07:50:09;101349.0;;;20.23;98.73
34454;BME280;60061;52.080;5.312;2022-08-19T07:51:48;101351.0;;;20.25;98.73
34454;BME280;60061;52.080;5.312;2022-08-19T07:53:25;101353.0;;;20.25;98.27
34454;BME280;60061;52.080;5.312;2022-08-19T07:56:42;101357.0;;;20.25;98.44
34454;BME280;60061;52.080;5.312;2022-08-19T07:58:21;101357.0;;;20.31;99.41
34454;BME280;60061;52.080;5.312;2022-08-19T07:59:58;101350.0;;;20.48;99.06
34454;BME280;60061;52.080;5.312;2022-08-19T08:01:35;101359.0;;;20.61;98.26
34454;BME280;60061;52.080;5.312;2022-08-19T08:09:31;101355.0;;;20.87;96.01
34454;BME280;60061;52.080;5.312;2022-08-19T08:11:09;101358.0;;;21.0;95.46
34454;BME280;60061;52.080;5.312;2022-08-19T08:12:46;101364.0;;;21.1;96.1
34454;BME280;60061;52.080;5.312;2022-08-19T08:14:25;101367.0;;;21.17;95.67
34454;BME280;60061;52.080;5.312;2022-08-19T08:17:41;101374.0;;;21.32;95.36
34454;BME280;60061;52.080;5.312;2022-08-19T08:19:19;101372.0;;;21.28;94.56
34454;BME280;60061;52.080;5.312;2022-08-19T08:20:57;101374.0;;;21.36;93.82
34454;BME280;60061;52.080;5.312;2022-08-19T08:23:38;101373.0;;;21.4;93.35
34454;BME280;60061;52.080;5.312;2022-08-19T08:25:17;101374.0;;;21.36;93.11
34454;BME280;60061;52.080;5.312;2022-08-19T08:26:57;101376.0;;;21.5;92.54
34454;BME280;60061;52.080;5.312;2022-08-19T08:30:14;101372.0;;;21.51;93.14
34454;BME280;60061;52.080;5.312;2022-08-19T08:31:54;101374.0;;;21.6;92.27
34454;BME280;60061;52.080;5.312;2022-08-19T08:33:30;101383.0;;;21.45;91.33
34454;BME280;60061;52.080;5.312;2022-08-19T08:35:09;101388.0;;;21.48;92.35
34454;BME280;60061;52.080;5.312;2022-08-19T08:38:25;101377.0;;;21.57;90.8
34454;BME280;60061;52.080;5.312;2022-08-19T08:40:03;101382.0;;;21.8;94.09
34454;BME280;60061;52.080;5.312;2022-08-19T08:41:47;101388.0;;;21.95;90.39
34454;BME280;60061;52.080;5.312;2022-08-19T08:43:35;101386.0;;;21.94;89.78
34454;BME280;60061;52.080;5.312;2022-08-19T08:46:57;101385.0;;;22.03;90.62
34454;BME280;60061;52.080;5.312;2022-08-19T08:48:40;101387.0;;;22.2;89.72
34454;BME280;60061;52.080;5.312;2022-08-19T08:50:25;101393.0;;;22.39;88.88
34454;BME280;60061;52.080;5.312;2022-08-19T08:52:08;101394.0;;;22.48;86.98
34454;BME280;60061;52.080;5.312;2022-08-19T08:53:49;101387.0;;;22.49;85.71
34454;BME280;60061;52.080;5.312;2022-08-19T08:57:10;101382.0;;;22.48;84.5
34454;BME280;60061;52.080;5.312;2022-08-19T08:58:58;101383.0;;;22.54;84.22
34454;BME280;60061;52.080;5.312;2022-08-19T09:00:40;101378.0;;;22.48;83.7
34454;BME280;60061;52.080;5.312;2022-08-19T09:02:20;101376.0;;;22.48;83.96
34454;BME280;60061;52.080;5.312;2022-08-19T09:05:41;101381.0;;;22.54;85.07
34454;BME280;60061;52.080;5.312;2022-08-19T09:07:37;101384.0;;;22.56;84.72
34454;BME280;60061;52.080;5.312;2022-08-19T09:09:34;101388.0;;;22.72;84.38
34454;BME280;60061;52.080;5.312;2022-08-19T09:11:21;101388.0;;;22.8;84.94
34454;BME280;60061;52.080;5.312;2022-08-19T09:13:13;101391.0;;;22.88;83.04
34454;BME280;60061;52.080;5.312;2022-08-19T09:15:05;101397.0;;;22.97;83.43
34454;BME280;60061;52.080;5.312;2022-08-19T09:18:18;101403.0;;;23.03;82.16
34454;BME280;60061;52.080;5.312;2022-08-19T09:19:58;101402.0;;;23.06;82.0
34454;BME280;60061;52.080;5.312;2022-08-19T09:21:35;101400.0;;;23.07;81.19
34454;BME280;60061;52.080;5.312;2022-08-19T09:23:11;101397.0;;;23.11;81.3
34454;BME280;60061;52.080;5.312;2022-08-19T09:26:25;101398.0;;;23.13;81.52
34454;BME280;60061;52.080;5.312;2022-08-19T09:28:03;101397.0;;;23.16;81.0
34454;BME280;60061;52.080;5.312;2022-08-19T09:29:39;101396.0;;;23.1;79.64
34454;BME280;60061;52.080;5.312;2022-08-19T09:33:01;101397.0;;;23.12;79.8
34454;BME280;60061;52.080;5.312;2022-08-19T09:34:37;101397.0;;;23.17;80.91
34454;BME280;60061;52.080;5.312;2022-08-19T09:36:16;101403.0;;;23.32;80.31
34454;BME280;60061;52.080;5.312;2022-08-19T09:37:54;101402.0;;;23.44;79.27
34454;BME280;60061;52.080;5.312;2022-08-19T09:41:09;101399.0;;;23.64;79.36
34454;BME280;60061;52.080;5.312;2022-08-19T09:42:48;101398.0;;;23.64;78.69
34454;BME280;60061;52.080;5.312;2022-08-19T09:44:24;101411.0;;;23.63;76.97
34454;BME280;60061;52.080;5.312;2022-08-19T09:47:38;101407.0;;;23.63;77.47
34454;BME280;60061;52.080;5.312;2022-08-19T09:49:15;101406.0;;;23.57;77.33
34454;BME280;60061;52.080;5.312;2022-08-19T09:50:52;101408.0;;;23.43;77.69
34454;BME280;60061;52.080;5.312;2022-08-19T09:52:28;101406.0;;;23.46;78.69
34454;BME280;60061;52.080;5.312;2022-08-19T09:55:41;101408.0;;;23.39;77.55
34454;BME280;60061;52.080;5.312;2022-08-19T09:57:18;101407.0;;;23.47;77.55
34454;BME280;60061;52.080;5.312;2022-08-19T09:58:54;101405.0;;;23.56;77.77
34454;BME280;60061;52.080;5.312;2022-08-19T10:02:09;101401.0;;;23.72;77.05
34454;BME280;60061;52.080;5.312;2022-08-19T10:03:47;101401.0;;;23.88;78.0
34454;BME280;60061;52.080;5.312;2022-08-19T10:05:57;101403.0;;;23.96;76.52
34454;BME280;60061;52.080;5.312;2022-08-19T10:07:35;101397.0;;;23.98;76.45
34454;BME280;60061;52.080;5.312;2022-08-19T10:09:14;101395.0;;;23.97;76.58
34454;BME280;60061;52.080;5.312;2022-08-19T10:12:28;101400.0;;;24.07;76.74
34454;BME280;60061;52.080;5.312;2022-08-19T10:14:06;101400.0;;;23.98;76.2
34454;BME280;60061;52.080;5.312;2022-08-19T10:15:43;101402.0;;;24.04;76.74
34454;BME280;60061;52.080;5.312;2022-08-19T10:18:57;101401.0;;;24.06;76.38
34454;BME280;60061;52.080;5.312;2022-08-19T10:20:35;101398.0;;;24.11;76.34
34454;BME280;60061;52.080;5.312;2022-08-19T10:22:13;101400.0;;;24.17;76.99
34454;BME280;60061;52.080;5.312;2022-08-19T10:23:54;101397.0;;;24.28;76.94
34454;BME280;60061;52.080;5.312;2022-08-19T10:27:10;101393.0;;;24.37;76.48
34454;BME280;60061;52.080;5.312;2022-08-19T10:28:47;101392.0;;;24.44;76.64
34454;BME280;60061;52.080;5.312;2022-08-19T10:30:23;101394.0;;;24.5;76.52
34454;BME280;60061;52.080;5.312;2022-08-19T10:33:38;101396.0;;;24.59;77.13
34454;BME280;60061;52.080;5.312;2022-08-19T10:35:16;101392.0;;;24.57;76.58
34454;BME280;60061;52.080;5.312;2022-08-19T10:36:52;101395.0;;;24.51;77.08
34454;BME280;60061;52.080;5.312;2022-08-19T10:38:28;101393.0;;;24.45;76.58
34454;BME280;60061;52.080;5.312;2022-08-19T10:41:44;101391.0;;;24.5;77.13
34454;BME280;60061;52.080;5.312;2022-08-19T10:43:20;101391.0;;;24.54;77.97
34454;BME280;60061;52.080;5.312;2022-08-19T10:44:57;101392.0;;;24.59;77.12
34454;BME280;60061;52.080;5.312;2022-08-19T10:48:16;101394.0;;;24.69;77.05
34454;BME280;60061;52.080;5.312;2022-08-19T10:52:48;101389.0;;;24.75;77.8
34454;BME280;60061;52.080;5.312;2022-08-19T10:56:51;101389.0;;;24.75;76.2
34454;BME280;60061;52.080;5.312;2022-08-19T10:58:27;101396.0;;;24.88;76.61
34454;BME280;60061;52.080;5.312;2022-08-19T11:00:04;101380.0;;;24.81;75.44
34454;BME280;60061;52.080;5.312;2022-08-19T11:01:41;101380.0;;;25.05;77.28
34454;BME280;60061;52.080;5.312;2022-08-19T11:04:56;101380.0;;;25.14;73.89
34454;BME280;60061;52.080;5.312;2022-08-19T11:06:32;101381.0;;;25.31;76.16
34454;BME280;60061;52.080;5.312;2022-08-19T11:08:11;101384.0;;;25.42;76.05
34454;BME280;60061;52.080;5.312;2022-08-19T11:11:24;101380.0;;;25.59;75.73
34454;BME280;60061;52.080;5.312;2022-08-19T11:13:00;101380.0;;;25.58;74.63
34454;BME280;60061;52.080;5.312;2022-08-19T11:14:36;101382.0;;;25.47;73.17
34454;BME280;60061;52.080;5.312;2022-08-19T11:16:16;101375.0;;;25.53;74.13
34454;BME280;60061;52.080;5.312;2022-08-19T11:19:32;101373.0;;;25.65;74.31
34454;BME280;60061;52.080;5.312;2022-08-19T11:21:12;101376.0;;;25.57;73.33